createdAt,value
2024-03-05T00:00:13.806Z,94.82
2024-03-05T00:02:41.683Z,94.51
2024-03-05T00:05:09.550Z,94.43
2024-03-05T00:07:36.968Z,94.54
2024-03-05T00:10:04.450Z,94.29
2024-03-05T00:12:31.999Z,94.28
2024-03-05T00:14:59.271Z,94.08
2024-03-05T00:17:26.752Z,93.75
2024-03-05T00:19:54.331Z,93.64
2024-03-05T00:22:21.732Z,93.83
2024-03-05T00:24:48.975Z,93.49
2024-03-05T00:27:16.275Z,93.67
2024-03-05T00:29:43.465Z,93.70
2024-03-05T00:32:10.868Z,93.88
2024-03-05T00:34:39.347Z,94.15
2024-03-05T00:37:07.188Z,94.54
2024-03-05T00:39:34.430Z,94.76
2024-03-05T00:42:01.749Z,93.92
2024-03-05T00:44:29.076Z,94.21
2024-03-05T00:46:56.565Z,94.04
2024-03-05T00:49:24.295Z,93.81
2024-03-05T00:51:51.696Z,94.56
2024-03-05T00:54:19.091Z,94.99
2024-03-05T00:56:46.374Z,95.08
2024-03-05T00:59:13.692Z,94.47
2024-03-05T01:01:41.011Z,94.51
2024-03-05T01:04:09.362Z,94.33
2024-03-05T01:06:36.988Z,95.26
2024-03-05T01:09:08.677Z,95.97
2024-03-05T01:11:35.940Z,95.55
2024-03-05T01:14:03.357Z,95.87
2024-03-05T01:16:30.611Z,94.84
2024-03-05T01:18:58.259Z,94.68
2024-03-05T01:21:25.990Z,95.80
2024-03-05T01:23:54.453Z,95.95
2024-03-05T01:26:23.018Z,96.50
2024-03-05T01:28:50.261Z,97.73
2024-03-05T01:31:17.562Z,98.54
2024-03-05T01:33:45.067Z,98.70
2024-03-05T01:36:12.363Z,98.93
2024-03-05T01:38:39.600Z,99.31
2024-03-05T01:41:06.842Z,100.00
2024-03-05T01:43:34.179Z,100.00
2024-03-05T01:46:01.506Z,100.00
2024-03-05T01:48:29.768Z,100.00
2024-03-05T01:50:57.237Z,100.00
2024-03-05T01:53:25.294Z,100.00
2024-03-05T01:55:54.812Z,100.00
2024-03-05T01:58:22.822Z,100.00
2024-03-05T02:00:50.355Z,100.00
2024-03-05T02:03:18.625Z,100.00
2024-03-05T02:05:47.330Z,100.00
2024-03-05T02:08:18.331Z,100.00
2024-03-05T02:10:47.416Z,100.00
2024-03-05T02:13:15.181Z,100.00
2024-03-05T02:15:43.606Z,100.00
2024-03-05T02:18:10.875Z,100.00
2024-03-05T02:20:38.065Z,100.00
2024-03-05T02:23:05.240Z,100.00
2024-03-05T02:25:32.804Z,100.00
2024-03-05T02:28:00.930Z,100.00
2024-03-05T02:30:30.687Z,100.00
2024-03-05T02:32:58.531Z,100.00
2024-03-05T02:35:25.878Z,100.00
2024-03-05T02:37:53.388Z,100.00
2024-03-05T02:40:20.814Z,100.00
2024-03-05T02:42:48.123Z,100.00
2024-03-05T02:45:17.051Z,100.00
2024-03-05T02:47:44.503Z,100.00
2024-03-05T02:50:12.556Z,100.00
2024-03-05T02:52:40.409Z,100.00
2024-03-05T02:55:11.321Z,100.00
2024-03-05T02:57:39.860Z,100.00
2024-03-05T03:00:10.211Z,100.00
2024-03-05T03:02:38.218Z,100.00
2024-03-05T03:05:06.904Z,100.00
2024-03-05T03:07:34.301Z,100.00
2024-03-05T03:10:01.774Z,100.00
2024-03-05T03:12:29.127Z,100.00
2024-03-05T03:14:56.406Z,100.00
2024-03-05T03:17:23.791Z,100.00
2024-03-05T03:19:51.173Z,100.00
2024-03-05T03:22:18.542Z,100.00
2024-03-05T03:24:45.770Z,100.00
2024-03-05T03:27:13.077Z,99.88
2024-03-05T03:29:41.764Z,99.79
2024-03-05T03:32:11.223Z,99.26
2024-03-05T03:34:41.890Z,100.00
2024-03-05T03:37:09.481Z,100.00
2024-03-05T03:39:36.831Z,100.00
2024-03-05T03:42:04.185Z,100.00
2024-03-05T03:44:31.963Z,99.73
2024-03-05T03:46:59.428Z,100.00
2024-03-05T03:49:27.114Z,100.00
2024-03-05T03:51:55.180Z,100.00
2024-03-05T03:54:23.101Z,100.00
2024-03-05T03:56:50.482Z,100.00
2024-03-05T03:59:18.408Z,100.00
2024-03-05T04:01:46.528Z,100.00
2024-03-05T04:04:14.044Z,100.00
2024-03-05T04:06:41.372Z,100.00
2024-03-05T04:09:15.201Z,100.00
2024-03-05T04:11:43.718Z,100.00
2024-03-05T04:14:14.803Z,100.00
2024-03-05T04:16:43.794Z,100.00
2024-03-05T04:19:11.095Z,100.00
2024-03-05T04:21:42.334Z,100.00
2024-03-05T04:24:14.503Z,100.00
2024-03-05T04:26:42.936Z,100.00
2024-03-05T04:29:17.291Z,100.00
2024-03-05T04:31:50.681Z,100.00
2024-03-05T04:34:22.073Z,100.00
2024-03-05T04:36:55.504Z,100.00
2024-03-05T04:39:24.615Z,100.00
2024-03-05T04:41:51.922Z,100.00
2024-03-05T04:44:19.213Z,100.00
2024-03-05T04:46:46.662Z,100.00
2024-03-05T04:49:14.647Z,100.00
2024-03-05T04:51:42.494Z,100.00
2024-03-05T04:54:11.290Z,100.00
2024-03-05T04:56:38.577Z,100.00
2024-03-05T04:59:05.833Z,100.00
2024-03-05T05:01:33.144Z,100.00
2024-03-05T05:04:00.562Z,100.00
2024-03-05T05:06:27.809Z,100.00
2024-03-05T05:08:55.075Z,100.00
2024-03-05T05:11:22.469Z,100.00
2024-03-05T05:13:49.773Z,100.00
2024-03-05T05:16:17.200Z,100.00
2024-03-05T05:18:44.723Z,100.00
2024-03-05T05:21:11.908Z,100.00
2024-03-05T05:23:39.598Z,100.00
2024-03-05T05:26:06.888Z,100.00
2024-03-05T05:28:34.189Z,100.00
2024-03-05T05:31:01.452Z,100.00
2024-03-05T05:33:28.747Z,100.00
2024-03-05T05:35:55.881Z,100.00
2024-03-05T05:38:23.045Z,100.00
2024-03-05T05:40:50.853Z,100.00
2024-03-05T05:43:18.079Z,100.00
2024-03-05T05:45:50.000Z,100.00
2024-03-05T05:48:28.857Z,100.00
2024-03-05T05:50:59.836Z,100.00
2024-03-05T05:53:27.148Z,100.00
2024-03-05T05:55:54.512Z,100.00
2024-03-05T05:58:21.834Z,100.00
2024-03-05T06:00:49.326Z,100.00
2024-03-05T06:03:17.899Z,100.00
2024-03-05T06:05:46.554Z,100.00
2024-03-05T06:08:15.875Z,100.00
2024-03-05T06:10:43.798Z,100.00
2024-03-05T06:13:11.779Z,100.00
2024-03-05T06:15:42.813Z,100.00
2024-03-05T06:18:10.535Z,100.00
2024-03-05T06:20:38.167Z,100.00
2024-03-05T06:23:05.704Z,100.00
2024-03-05T06:25:33.351Z,100.00
2024-03-05T06:28:00.947Z,100.00
2024-03-05T06:30:29.581Z,100.00
2024-03-05T06:32:56.879Z,100.00
2024-03-05T06:35:26.389Z,100.00
2024-03-05T06:37:55.079Z,100.00
2024-03-05T06:40:24.860Z,100.00
2024-03-05T06:43:05.682Z,100.00
2024-03-05T06:45:35.693Z,100.00
2024-03-05T06:48:15.870Z,100.00
2024-03-05T06:50:44.972Z,100.00
2024-03-05T06:53:31.345Z,100.00
2024-03-05T06:56:17.470Z,97.95
2024-03-05T06:58:47.211Z,95.37
2024-03-05T07:01:16.134Z,93.59
2024-03-05T07:03:44.053Z,92.38
2024-03-05T07:06:13.573Z,91.99
2024-03-05T07:08:44.216Z,93.08
2024-03-05T07:11:12.552Z,93.77
2024-03-05T07:13:44.611Z,94.34
2024-03-05T07:16:17.392Z,95.41
2024-03-05T07:18:49.541Z,96.02
2024-03-05T07:21:22.009Z,96.41
2024-03-05T07:23:53.146Z,95.70
2024-03-05T07:26:21.203Z,94.72
2024-03-05T07:28:49.179Z,94.64
2024-03-05T07:31:17.745Z,93.12
2024-03-05T07:33:47.769Z,88.91
2024-03-05T07:36:18.842Z,81.48
2024-03-05T07:38:46.439Z,74.54
2024-03-05T07:41:21.988Z,64.09
2024-03-05T07:43:54.431Z,58.65
2024-03-05T07:46:21.718Z,56.92
2024-03-05T07:48:49.050Z,53.83
2024-03-05T07:51:23.875Z,52.49
2024-03-05T07:53:52.832Z,50.02
2024-03-05T07:56:20.330Z,47.96
2024-03-05T07:58:47.683Z,47.35
2024-03-05T08:01:15.440Z,46.55
2024-03-05T08:03:42.905Z,43.57
2024-03-05T08:06:10.252Z,42.50
2024-03-05T08:08:37.501Z,43.00
2024-03-05T08:11:04.946Z,42.92
2024-03-05T08:13:35.934Z,43.53
2024-03-05T08:16:05.648Z,44.29
2024-03-05T08:18:33.226Z,43.45
2024-03-05T08:21:02.791Z,45.00
2024-03-05T08:23:30.248Z,43.66
2024-03-05T08:25:57.625Z,41.39
2024-03-05T08:28:25.585Z,44.65
2024-03-05T08:30:55.033Z,43.28
2024-03-05T08:33:24.398Z,42.76
2024-03-05T08:35:51.721Z,42.93
2024-03-05T08:38:18.948Z,47.31
2024-03-05T08:40:47.324Z,49.76
2024-03-05T08:43:15.478Z,54.75
2024-03-05T08:45:42.837Z,52.24
2024-03-05T08:48:10.310Z,52.24
2024-03-05T08:50:37.665Z,52.56
2024-03-05T08:53:06.267Z,51.32
2024-03-05T08:55:33.858Z,52.07
2024-03-05T08:58:01.944Z,51.34
2024-03-05T09:00:38.034Z,49.05
2024-03-05T09:03:11.654Z,46.43
2024-03-05T09:05:39.776Z,43.73
2024-03-05T09:08:08.060Z,44.64
2024-03-05T09:10:35.916Z,45.66
2024-03-05T09:13:03.524Z,46.55
2024-03-05T09:15:31.457Z,47.86
2024-03-05T09:17:58.976Z,47.57
2024-03-05T09:20:26.982Z,46.96
2024-03-05T09:22:54.362Z,51.37
2024-03-05T09:25:21.970Z,51.97
2024-03-05T09:27:49.204Z,55.63
2024-03-05T09:30:19.588Z,59.69
2024-03-05T09:32:49.684Z,60.27
2024-03-05T09:35:18.978Z,64.62
2024-03-05T09:37:47.050Z,67.19
2024-03-05T09:40:19.437Z,65.76
2024-03-05T09:42:47.973Z,66.55
2024-03-05T09:45:16.661Z,67.65
2024-03-05T09:47:44.714Z,67.72
2024-03-05T09:50:12.944Z,65.08
2024-03-05T09:52:40.292Z,67.59
2024-03-05T09:55:08.288Z,68.56
2024-03-05T09:57:36.030Z,69.24
2024-03-05T10:00:05.319Z,67.53
2024-03-05T10:02:40.141Z,67.63
2024-03-05T10:05:10.956Z,67.80
2024-03-05T10:07:38.594Z,66.93
2024-03-05T10:10:06.776Z,65.83
2024-03-05T10:12:34.329Z,66.49
2024-03-05T10:15:11.933Z,66.19
2024-03-05T10:17:43.626Z,64.56
2024-03-05T10:20:12.036Z,64.90
2024-03-05T10:22:39.381Z,63.39
2024-03-05T10:25:14.132Z,62.19
2024-03-05T10:27:45.692Z,61.52
2024-03-05T10:30:20.953Z,60.85
2024-03-05T10:32:56.082Z,61.60
2024-03-05T10:35:23.932Z,60.33
2024-03-05T10:38:01.838Z,59.71
2024-03-05T10:40:33.138Z,61.17
2024-03-05T10:43:01.917Z,60.01
2024-03-05T10:45:29.526Z,60.93
2024-03-05T10:47:58.775Z,59.23
2024-03-05T10:50:29.437Z,58.96
2024-03-05T10:52:57.410Z,56.68
2024-03-05T10:55:25.880Z,56.62
2024-03-05T10:58:12.772Z,55.95
2024-03-05T11:00:41.520Z,55.90
2024-03-05T11:03:10.061Z,55.42
2024-03-05T11:05:54.477Z,55.17
2024-03-05T11:08:25.762Z,55.45
2024-03-05T11:11:22.834Z,55.03
2024-03-05T11:13:50.979Z,54.53
2024-03-05T11:16:18.886Z,55.97
2024-03-05T11:18:47.512Z,55.19
2024-03-05T11:21:15.845Z,55.38
2024-03-05T11:23:52.201Z,54.37
2024-03-05T11:26:21.251Z,54.18
2024-03-05T11:28:48.939Z,55.40
2024-03-05T11:31:21.648Z,54.83
2024-03-05T11:33:58.573Z,55.13
2024-03-05T11:36:25.821Z,54.79
2024-03-05T11:39:16.176Z,55.25
2024-03-05T11:41:44.371Z,55.68
2024-03-05T11:44:12.823Z,54.88
2024-03-05T11:46:47.683Z,54.15
2024-03-05T11:49:15.894Z,54.17
2024-03-05T11:51:44.513Z,53.73
2024-03-05T11:54:13.179Z,53.97
2024-03-05T11:56:41.267Z,52.92
2024-03-05T11:59:09.707Z,52.59
2024-03-05T12:01:37.633Z,52.73
2024-03-05T12:04:09.173Z,51.59
2024-03-05T12:06:37.334Z,52.89
2024-03-05T12:09:11.788Z,52.60
2024-03-05T12:11:39.114Z,54.09
2024-03-05T12:14:10.142Z,54.99
2024-03-05T12:16:38.258Z,54.78
2024-03-05T12:19:08.168Z,56.30
2024-03-05T12:21:37.736Z,55.60
2024-03-05T12:24:06.152Z,56.11
2024-03-05T12:26:34.739Z,55.48
2024-03-05T12:29:03.513Z,55.75
2024-03-05T12:31:31.160Z,54.87
2024-03-05T12:33:59.507Z,54.83
2024-03-05T12:36:27.138Z,55.03
2024-03-05T12:38:57.590Z,55.92
2024-03-05T12:41:25.493Z,55.20
2024-03-05T12:43:53.431Z,56.09
2024-03-05T12:46:20.703Z,56.66
2024-03-05T12:48:49.331Z,54.28
2024-03-05T12:51:16.634Z,54.07
2024-03-05T12:53:45.166Z,55.80
2024-03-05T12:56:17.036Z,55.89
2024-03-05T12:58:44.633Z,56.52
2024-03-05T13:01:16.238Z,56.60
2024-03-05T13:03:44.788Z,55.71
2024-03-05T13:06:12.531Z,56.83
2024-03-05T13:08:40.807Z,55.89
2024-03-05T13:11:08.287Z,56.35
2024-03-05T13:13:35.576Z,55.73
2024-03-05T13:16:02.791Z,56.18
2024-03-05T13:18:30.262Z,55.97
2024-03-05T13:20:57.672Z,56.26
2024-03-05T13:23:24.996Z,57.64
2024-03-05T13:25:52.316Z,57.92
2024-03-05T13:28:19.497Z,57.79
2024-03-05T13:30:46.744Z,57.26
2024-03-05T13:33:14.614Z,57.30
2024-03-05T13:35:41.919Z,56.78
2024-03-05T13:38:11.481Z,56.14
2024-03-05T13:40:38.908Z,55.60
2024-03-05T13:43:11.400Z,55.74
2024-03-05T13:45:38.817Z,55.44
2024-03-05T13:48:06.314Z,56.62
2024-03-05T13:50:33.969Z,56.82
2024-03-05T13:53:01.248Z,57.75
2024-03-05T13:55:30.446Z,57.18
2024-03-05T13:57:57.746Z,57.93
2024-03-05T14:00:27.526Z,57.51
2024-03-05T14:02:54.839Z,57.81
2024-03-05T14:05:23.074Z,58.00
2024-03-05T14:07:50.620Z,57.92
2024-03-05T14:10:18.050Z,58.53
2024-03-05T14:12:50.446Z,58.78
2024-03-05T14:15:22.044Z,57.65
2024-03-05T14:17:50.788Z,57.66
2024-03-05T14:20:24.698Z,57.62
2024-03-05T14:22:52.739Z,58.29
2024-03-05T14:25:19.963Z,58.83
2024-03-05T14:27:49.309Z,58.76
2024-03-05T14:30:20.765Z,59.15
2024-03-05T14:32:48.701Z,59.73
2024-03-05T14:35:16.393Z,60.17
2024-03-05T14:37:44.273Z,59.71
2024-03-05T14:40:12.305Z,59.83
2024-03-05T14:42:39.500Z,59.66
2024-03-05T14:45:07.283Z,59.69
2024-03-05T14:47:34.610Z,59.33
2024-03-05T14:50:02.090Z,59.95
2024-03-05T14:52:29.369Z,60.43
2024-03-05T14:54:58.107Z,60.32
2024-03-05T14:57:27.739Z,60.35
2024-03-05T14:59:55.149Z,60.57
2024-03-05T15:02:22.491Z,60.21
2024-03-05T15:04:49.951Z,60.12
2024-03-05T15:07:17.196Z,59.78
2024-03-05T15:09:44.463Z,59.83
2024-03-05T15:12:12.210Z,59.85
2024-03-05T15:14:43.272Z,60.34
2024-03-05T15:17:11.897Z,61.16
2024-03-05T15:19:39.379Z,62.54
2024-03-05T15:22:07.573Z,63.16
2024-03-05T15:24:34.951Z,63.74
2024-03-05T15:27:05.954Z,64.36
2024-03-05T15:29:33.952Z,64.91
2024-03-05T15:32:02.314Z,65.36
2024-03-05T15:34:30.120Z,65.77
2024-03-05T15:36:57.525Z,66.45
2024-03-05T15:39:25.032Z,66.78
2024-03-05T15:41:52.715Z,66.76
2024-03-05T15:44:19.961Z,66.35
2024-03-05T15:46:48.654Z,66.88
2024-03-05T15:49:15.906Z,66.79
2024-03-05T15:51:43.984Z,66.93
2024-03-05T15:54:11.675Z,67.17
2024-03-05T15:56:59.145Z,67.48
2024-03-05T15:59:45.140Z,67.91
2024-03-05T16:02:12.680Z,68.28
2024-03-05T16:04:58.836Z,68.18
2024-03-05T16:07:27.679Z,68.41
2024-03-05T16:09:54.971Z,68.80
2024-03-05T16:12:25.268Z,69.15
2024-03-05T16:14:53.779Z,68.47
2024-03-05T16:17:21.966Z,69.02
2024-03-05T16:19:49.196Z,69.50
2024-03-05T16:22:16.449Z,69.49
2024-03-05T16:24:44.629Z,69.40
2024-03-05T16:27:11.899Z,69.51
2024-03-05T16:29:39.177Z,69.65
2024-03-05T16:32:08.717Z,70.24
2024-03-05T16:34:37.926Z,69.54
2024-03-05T16:37:07.845Z,70.47
2024-03-05T16:39:36.575Z,71.11
2024-03-05T16:42:08.168Z,72.07
2024-03-05T16:44:38.424Z,72.61
2024-03-05T16:47:05.759Z,73.60
2024-03-05T16:49:33.652Z,74.73
2024-03-05T16:52:01.101Z,73.98
2024-03-05T16:54:29.469Z,73.58
2024-03-05T16:56:56.864Z,73.01
2024-03-05T16:59:24.173Z,73.65
2024-03-05T17:01:51.476Z,71.91
2024-03-05T17:04:22.233Z,73.03
2024-03-05T17:06:51.436Z,72.47
2024-03-05T17:09:18.691Z,72.24
2024-03-05T17:11:46.084Z,72.21
2024-03-05T17:14:13.452Z,72.42
2024-03-05T17:16:43.127Z,71.88
2024-03-05T17:19:12.558Z,72.20
2024-03-05T17:21:39.861Z,72.67
2024-03-05T17:24:07.173Z,72.52
2024-03-05T17:26:34.504Z,72.49
2024-03-05T17:29:06.916Z,72.50
2024-03-05T17:31:34.952Z,71.81
2024-03-05T17:34:02.492Z,71.37
2024-03-05T17:36:30.823Z,71.59
2024-03-05T17:38:58.049Z,71.02
2024-03-05T17:41:25.382Z,70.78
2024-03-05T17:43:52.778Z,71.39
2024-03-05T17:46:20.913Z,71.29
2024-03-05T17:48:48.124Z,72.47
2024-03-05T17:51:15.427Z,72.43
2024-03-05T17:53:42.675Z,73.05
2024-03-05T17:56:12.609Z,74.72
2024-03-05T17:58:41.198Z,76.51
2024-03-05T18:01:12.646Z,80.01
2024-03-05T18:03:40.264Z,81.35
2024-03-05T18:06:07.667Z,83.77
2024-03-05T18:08:35.083Z,84.57
2024-03-05T18:11:02.519Z,86.00
2024-03-05T18:13:29.768Z,83.84
2024-03-05T18:15:57.352Z,83.58
2024-03-05T18:18:24.941Z,88.45
2024-03-05T18:20:52.164Z,89.37
2024-03-05T18:23:19.459Z,91.03
2024-03-05T18:25:49.196Z,92.29
2024-03-05T18:28:21.703Z,93.57
2024-03-05T18:30:49.533Z,95.28
2024-03-05T18:33:17.989Z,93.75
2024-03-05T18:35:46.655Z,94.37
2024-03-05T18:38:24.015Z,94.63
2024-03-05T18:40:58.261Z,94.14
2024-03-05T18:43:26.093Z,93.84
2024-03-05T18:45:53.619Z,91.93
2024-03-05T18:48:21.763Z,93.04
2024-03-05T18:50:49.259Z,95.05
2024-03-05T18:53:17.510Z,94.55
2024-03-05T18:55:45.634Z,95.77
2024-03-05T18:58:13.247Z,96.50
2024-03-05T19:00:41.591Z,96.67
2024-03-05T19:03:09.220Z,95.98
2024-03-05T19:05:37.334Z,95.79
2024-03-05T19:08:06.851Z,94.28
2024-03-05T19:10:34.602Z,92.35
2024-03-05T19:13:07.023Z,92.55
2024-03-05T19:15:34.889Z,92.59
2024-03-05T19:18:02.329Z,91.02
2024-03-05T19:20:30.685Z,92.12
2024-03-05T19:22:58.041Z,89.94
2024-03-05T19:25:29.289Z,91.35
2024-03-05T19:27:56.975Z,90.19
2024-03-05T19:30:24.290Z,90.83
2024-03-05T19:32:51.723Z,86.30
2024-03-05T19:35:21.608Z,86.21
2024-03-05T19:37:49.209Z,85.41
2024-03-05T19:40:22.286Z,86.84
2024-03-05T19:42:58.361Z,87.75
2024-03-05T19:45:29.256Z,86.62
2024-03-05T19:47:58.555Z,86.91
2024-03-05T19:50:27.368Z,87.16
2024-03-05T19:52:56.309Z,87.45
2024-03-05T19:55:24.378Z,89.67
2024-03-05T19:57:51.850Z,90.34
2024-03-05T20:00:25.540Z,87.51
2024-03-05T20:02:54.275Z,88.87
2024-03-05T20:05:23.201Z,88.71
2024-03-05T20:07:53.079Z,87.91
2024-03-05T20:10:22.041Z,88.45
2024-03-05T20:12:49.478Z,88.57
2024-03-05T20:15:16.817Z,88.34
2024-03-05T20:17:44.840Z,88.99
2024-03-05T20:20:17.669Z,91.51
2024-03-05T20:22:49.931Z,92.82
2024-03-05T20:25:22.836Z,93.61
2024-03-05T20:27:51.853Z,94.48
2024-03-05T20:30:19.735Z,95.22
2024-03-05T20:32:47.230Z,96.22
2024-03-05T20:35:20.024Z,97.34
2024-03-05T20:37:47.969Z,98.73
2024-03-05T20:40:15.635Z,99.67
2024-03-05T20:42:47.600Z,100.00
2024-03-05T20:45:15.088Z,100.00
2024-03-05T20:47:42.541Z,100.00
2024-03-05T20:50:10.644Z,100.00
2024-03-05T20:52:38.699Z,100.00
2024-03-05T20:55:06.613Z,100.00
2024-03-05T20:57:34.448Z,100.00
2024-03-05T21:00:07.518Z,100.00
2024-03-05T21:02:38.271Z,100.00
2024-03-05T21:05:07.618Z,100.00
2024-03-05T21:07:36.163Z,100.00
2024-03-05T21:10:10.350Z,100.00
2024-03-05T21:12:39.447Z,100.00
2024-03-05T21:15:13.796Z,100.00
2024-03-05T21:17:42.043Z,100.00
2024-03-05T21:20:10.995Z,100.00
2024-03-05T21:22:39.118Z,100.00
2024-03-05T21:25:07.105Z,100.00
2024-03-05T21:27:36.240Z,100.00
2024-03-05T21:30:05.035Z,100.00
2024-03-05T21:32:32.891Z,100.00
2024-03-05T21:35:02.179Z,100.00
2024-03-05T21:37:29.490Z,100.00
2024-03-05T21:39:56.766Z,100.00
2024-03-05T21:42:24.001Z,100.00
2024-03-05T21:44:51.303Z,100.00
2024-03-05T21:47:18.709Z,100.00
2024-03-05T21:49:46.428Z,100.00
2024-03-05T21:52:13.755Z,100.00
2024-03-05T21:54:41.039Z,100.00
2024-03-05T21:57:08.376Z,100.00
2024-03-05T21:59:35.577Z,100.00
2024-03-05T22:02:03.112Z,100.00
2024-03-05T22:04:30.361Z,100.00
2024-03-05T22:06:57.904Z,100.00
2024-03-05T22:09:25.552Z,100.00
2024-03-05T22:11:52.867Z,100.00
2024-03-05T22:14:20.220Z,100.00
2024-03-05T22:16:47.636Z,100.00
2024-03-05T22:19:14.915Z,100.00
2024-03-05T22:21:43.020Z,100.00
2024-03-05T22:24:10.373Z,100.00
2024-03-05T22:26:38.541Z,100.00
2024-03-05T22:29:06.070Z,100.00
2024-03-05T22:31:33.504Z,100.00
2024-03-05T22:34:00.755Z,100.00
2024-03-05T22:36:28.058Z,100.00
2024-03-05T22:38:55.316Z,100.00
2024-03-05T22:41:22.571Z,100.00
2024-03-05T22:43:49.973Z,100.00
2024-03-05T22:46:17.303Z,100.00
2024-03-05T22:48:44.610Z,100.00
2024-03-05T22:51:15.494Z,100.00
2024-03-05T22:53:42.867Z,100.00
2024-03-05T22:56:10.573Z,100.00
2024-03-05T22:58:38.856Z,100.00
2024-03-05T23:01:06.622Z,100.00
2024-03-05T23:03:34.687Z,100.00
2024-03-05T23:06:08.205Z,100.00
2024-03-05T23:08:39.909Z,100.00
2024-03-05T23:11:07.575Z,100.00
2024-03-05T23:13:35.375Z,100.00
2024-03-05T23:16:02.743Z,100.00
2024-03-05T23:18:30.010Z,100.00
2024-03-05T23:20:57.340Z,100.00
2024-03-05T23:23:24.607Z,100.00
2024-03-05T23:25:52.317Z,99.90
2024-03-05T23:28:22.628Z,100.00
2024-03-05T23:30:50.331Z,98.95
2024-03-05T23:33:17.817Z,98.98
2024-03-05T23:35:45.165Z,99.60
2024-03-05T23:38:12.680Z,100.00
2024-03-05T23:40:40.310Z,100.00
2024-03-05T23:43:07.612Z,100.00
2024-03-05T23:45:34.836Z,100.00
2024-03-05T23:48:02.277Z,99.08
2024-03-05T23:50:29.628Z,97.61
2024-03-05T23:52:57.146Z,96.57
2024-03-05T23:55:24.636Z,97.02
2024-03-05T23:57:51.922Z,98.14
